Time;durP1;ratioP1;P1;durP2;ratioP2;P2;SDS_P1;SDS_P2;PMS_P1;PMS_P2;Temp;Humidity;BMP_temperature;BMP_pressure;BME280_temperature;BME280_humidity;BME280_pressure;Samples;Min_cycle;Max_cycle;Signal;HPM_P1;HPM_P2
2023/10/07 00:00:49;;;;;;;6.50;2.05;;;15.40;99.90;;;;;;4995828;28;20117;-72
2023/10/07 00:03:17;;;;;;;9.80;1.88;;;15.40;99.90;;;;;;4997166;28;20406;-71
2023/10/07 00:05:46;;;;;;;8.75;2.15;;;15.50;99.90;;;;;;4979693;28;20459;-73
2023/10/07 00:08:21;;;;;;;9.73;2.17;;;15.50;99.90;;;;;;4983316;28;20038;-72
2023/10/07 00:10:49;;;;;;;12.15;3.30;;;15.50;99.90;;;;;;4998164;28;20490;-71
2023/10/07 00:13:17;;;;;;;8.02;2.05;;;15.50;99.90;;;;;;4997659;28;20080;-71
2023/10/07 00:15:43;;;;;;;9.45;2.10;;;15.40;99.90;;;;;;4979137;28;20030;-73
2023/10/07 00:18:13;;;;;;;9.93;2.22;;;15.40;99.90;;;;;;4984193;28;20033;-71
2023/10/07 00:20:47;;;;;;;23.75;2.90;;;15.40;99.90;;;;;;5000458;28;20029;-71
2023/10/07 00:23:18;;;;;;;7.80;2.15;;;15.40;99.90;;;;;;4977878;28;20038;-72
2023/10/07 00:25:49;;;;;;;;;;;15.40;99.90;;;;;;5015896;28;20061;-72
2023/10/07 00:28:19;;;;;;;10.25;2.33;;;15.40;99.90;;;;;;5003079;28;19913;-72
2023/10/07 00:30:45;;;;;;;14.37;2.37;;;15.40;99.90;;;;;;4995942;28;20043;-72
2023/10/07 00:33:12;;;;;;;8.60;2.97;;;15.40;99.90;;;;;;4979771;28;20044;-72
2023/10/07 00:35:38;;;;;;;11.00;2.95;;;15.40;99.90;;;;;;4980202;28;20113;-72
2023/10/07 00:38:03;;;;;;;14.27;2.33;;;15.40;99.90;;;;;;4998608;28;20117;-72
2023/10/07 00:40:40;;;;;;;12.32;3.28;;;15.40;99.90;;;;;;4982298;28;20136;-72
2023/10/07 00:43:09;;;;;;;5.32;2.50;;;15.50;99.90;;;;;;4982579;28;20130;-71
2023/10/07 00:45:35;;;;;;;7.68;2.08;;;15.40;99.90;;;;;;4991366;28;20029;-70
2023/10/07 00:48:04;;;;;;;8.68;2.75;;;15.40;99.90;;;;;;4977476;28;20092;-72
2023/10/07 00:50:30;;;;;;;10.63;2.50;;;15.40;99.90;;;;;;4981581;28;20034;-71
2023/10/07 00:52:57;;;;;;;14.32;3.00;;;15.40;99.90;;;;;;4977900;28;20866;-72
2023/10/07 00:55:31;;;;;;;7.22;1.98;;;15.40;99.90;;;;;;4979971;28;20042;-71
2023/10/07 01:00:47;;;;;;;12.40;2.70;;;15.30;99.90;;;;;;4999074;28;20796;-72
2023/10/07 01:05:54;;;;;;;7.60;2.42;;;15.30;99.90;;;;;;4995016;28;20037;-72
2023/10/07 01:08:27;;;;;;;13.80;3.35;;;15.30;99.90;;;;;;4986987;28;20050;-71
2023/10/07 01:11:06;;;;;;;16.63;2.83;;;15.30;99.90;;;;;;4980193;28;20037;-69
2023/10/07 01:13:33;;;;;;;17.92;2.60;;;15.30;99.90;;;;;;4977652;28;20053;-70
2023/10/07 01:15:59;;;;;;;16.95;4.15;;;15.30;99.90;;;;;;4981037;28;20033;-71
2023/10/07 01:18:27;;;;;;;10.15;2.70;;;15.40;99.90;;;;;;4997820;28;20034;-70
2023/10/07 01:23:24;;;;;;;11.93;2.45;;;15.40;99.90;;;;;;4995266;28;20065;-72
2023/10/07 01:25:53;;;;;;;11.18;2.42;;;15.40;99.90;;;;;;4997839;28;20030;-70
2023/10/07 01:28:20;;;;;;;15.65;2.40;;;15.40;99.90;;;;;;4977845;28;20038;-70
2023/10/07 01:31:07;;;;;;;11.73;2.80;;;15.40;99.90;;;;;;4978857;28;20034;-72
2023/10/07 01:33:45;;;;;;;10.43;2.15;;;15.40;99.90;;;;;;4996007;28;20394;-72
2023/10/07 01:36:19;;;;;;;10.75;2.10;;;15.40;99.90;;;;;;4979555;28;20034;-70
2023/10/07 01:38:48;;;;;;;10.63;2.53;;;15.40;99.90;;;;;;4996100;28;20046;-72
2023/10/07 01:41:18;;;;;;;12.75;2.58;;;15.40;99.90;;;;;;4995367;28;20045;-71
2023/10/07 01:43:56;;;;;;;11.82;2.63;;;15.40;99.90;;;;;;4995314;28;20047;-71
2023/10/07 01:46:26;;;;;;;14.23;2.60;;;15.40;99.90;;;;;;4984980;28;20042;-71
2023/10/07 01:48:57;;;;;;;10.30;2.60;;;15.50;99.90;;;;;;4975953;28;20033;-70
2023/10/07 01:51:23;;;;;;;11.60;3.55;;;15.50;99.90;;;;;;4994293;28;20042;-72
2023/10/07 01:53:56;;;;;;;9.43;2.92;;;15.50;99.90;;;;;;4998322;28;20472;-71
2023/10/07 01:56:26;;;;;;;12.70;2.70;;;15.60;99.90;;;;;;4997568;28;20041;-72
2023/10/07 01:58:54;;;;;;;8.70;2.50;;;15.50;99.90;;;;;;4994265;28;20034;-71
2023/10/07 02:01:22;;;;;;;11.27;2.95;;;15.60;99.90;;;;;;4980162;28;20038;-70
2023/10/07 02:03:49;;;;;;;11.38;3.15;;;15.60;99.90;;;;;;4994571;28;20037;-71
2023/10/07 02:06:18;;;;;;;11.90;2.10;;;15.60;99.90;;;;;;4998476;28;20038;-73
2023/10/07 02:08:45;;;;;;;14.23;2.70;;;15.70;99.90;;;;;;4978668;28;20084;-70
2023/10/07 02:11:11;;;;;;;13.43;2.80;;;15.70;99.90;;;;;;4993530;28;20038;-72
2023/10/07 02:13:36;;;;;;;14.93;2.70;;;15.70;99.90;;;;;;4977773;28;20050;-71
2023/10/07 02:16:06;;;;;;;12.48;3.38;;;15.70;99.90;;;;;;4979869;28;20045;-71
2023/10/07 02:18:35;;;;;;;9.93;2.30;;;15.60;99.90;;;;;;4977817;28;20045;-71
2023/10/07 02:21:07;;;;;;;9.38;2.70;;;15.70;99.90;;;;;;4992811;28;20061;-72
2023/10/07 02:23:43;;;;;;;10.13;2.38;;;15.70;99.90;;;;;;4979879;28;20137;-72
2023/10/07 02:26:19;;;;;;;8.27;2.22;;;15.70;99.90;;;;;;4979210;28;20388;-70
2023/10/07 02:28:48;;;;;;;8.73;2.17;;;15.70;99.90;;;;;;4993800;28;20076;-71
2023/10/07 02:31:18;;;;;;;11.27;2.65;;;15.70;99.90;;;;;;4997720;28;20045;-71
2023/10/07 02:33:51;;;;;;;14.68;2.22;;;15.70;99.90;;;;;;4999153;28;20033;-70
2023/10/07 02:36:32;;;;;;;8.98;2.35;;;15.70;99.90;;;;;;4978529;28;20030;-72
2023/10/07 02:39:04;;;;;;;11.70;2.15;;;15.70;99.90;;;;;;4994443;28;20068;-71
2023/10/07 02:41:33;;;;;;;8.93;2.35;;;15.70;99.90;;;;;;4994885;28;20037;-73
2023/10/07 02:44:05;;;;;;;6.18;2.10;;;15.70;99.90;;;;;;4993593;28;20042;-72
2023/10/07 02:49:03;;;;;;;9.63;1.65;;;15.70;99.90;;;;;;4998470;28;20116;-71
2023/10/07 02:51:28;;;;;;;10.45;2.42;;;15.80;99.90;;;;;;4999603;28;20045;-70
2023/10/07 02:54:04;;;;;;;9.45;2.60;;;15.80;99.90;;;;;;4987923;28;20038;-72
2023/10/07 02:56:43;;;;;;;7.47;1.75;;;15.70;99.90;;;;;;4976086;28;20038;-72
2023/10/07 02:59:22;;;;;;;12.10;2.38;;;15.70;99.90;;;;;;4979310;28;20132;-74
2023/10/07 03:02:12;;;;;;;8.90;2.13;;;15.80;99.90;;;;;;4980795;28;20042;-70
2023/10/07 03:04:35;;;;;;;8.45;2.08;;;15.80;99.90;;;;;;4994287;28;20115;-71
2023/10/07 03:07:08;;;;;;;7.13;1.80;;;15.80;99.90;;;;;;4994032;28;20038;-72
2023/10/07 03:09:34;;;;;;;9.35;2.63;;;15.80;99.90;;;;;;4975854;28;20096;-70
2023/10/07 03:12:04;;;;;;;5.38;1.63;;;15.80;99.90;;;;;;4996166;28;20037;-71
2023/10/07 03:14:29;;;;;;;7.30;1.77;;;15.80;99.90;;;;;;4996075;28;20038;-71
2023/10/07 03:17:01;;;;;;;7.53;1.35;;;15.80;99.90;;;;;;4993787;28;20511;-71
2023/10/07 03:19:46;;;;;;;5.45;1.63;;;15.90;99.90;;;;;;5001371;28;20038;-73
2023/10/07 03:22:15;;;;;;;10.35;1.65;;;15.90;99.90;;;;;;4999995;28;20049;-71
2023/10/07 03:24:41;;;;;;;10.68;2.25;;;15.90;99.90;;;;;;4999108;28;20401;-71
2023/10/07 03:27:11;;;;;;;8.82;2.13;;;15.90;99.90;;;;;;4997215;28;20454;-71
2023/10/07 03:29:39;;;;;;;10.60;1.52;;;15.90;99.90;;;;;;4982767;28;20027;-71
2023/10/07 03:32:12;;;;;;;10.43;1.45;;;16.00;99.90;;;;;;5000564;28;20111;-72
2023/10/07 03:34:40;;;;;;;6.78;1.38;;;16.00;99.90;;;;;;4981374;28;20065;-71
2023/10/07 03:42:18;;;;;;;5.43;1.48;;;16.10;99.90;;;;;;5001310;28;20088;-72
2023/10/07 03:44:46;;;;;;;5.82;1.60;;;16.10;99.90;;;;;;5005164;28;20407;-71
2023/10/07 03:47:15;;;;;;;7.50;1.85;;;16.10;99.90;;;;;;5008914;28;20145;-71
2023/10/07 03:49:40;;;;;;;7.00;1.20;;;16.10;99.90;;;;;;5003292;28;20038;-72
2023/10/07 03:52:12;;;;;;;8.18;2.05;;;16.10;99.90;;;;;;4981239;28;20037;-70
2023/10/07 03:54:42;;;;;;;9.23;2.50;;;16.10;99.90;;;;;;4985626;28;20037;-71
2023/10/07 03:57:09;;;;;;;11.73;2.13;;;16.10;99.90;;;;;;4983431;28;20034;-72
2023/10/07 03:59:36;;;;;;;8.52;1.85;;;16.10;99.90;;;;;;4998899;28;20096;-72
2023/10/07 04:02:29;;;;;;;4.40;1.83;;;16.10;99.90;;;;;;4980517;28;20261;-71
2023/10/07 04:04:58;;;;;;;16.23;2.20;;;16.10;99.90;;;;;;5003590;28;20073;-72
2023/10/07 04:07:24;;;;;;;6.50;1.63;;;16.10;99.90;;;;;;4983343;28;20045;-71
2023/10/07 04:09:51;;;;;;;11.43;2.08;;;16.10;99.90;;;;;;4994162;28;20499;-72
2023/10/07 04:12:16;;;;;;;11.73;2.13;;;16.10;99.90;;;;;;5000146;28;20529;-73
2023/10/07 04:14:42;;;;;;;6.00;1.63;;;16.10;99.90;;;;;;4996096;28;20038;-71
2023/10/07 04:17:11;;;;;;;8.73;2.05;;;16.10;99.90;;;;;;4982411;28;20041;-72
2023/10/07 04:19:42;;;;;;;11.65;1.73;;;16.10;99.90;;;;;;4998218;28;20432;-70
2023/10/07 04:22:11;;;;;;;8.75;2.47;;;16.10;99.90;;;;;;4983416;28;20057;-71
2023/10/07 04:24:43;;;;;;;10.80;2.13;;;16.10;99.90;;;;;;4979025;28;20038;-71
2023/10/07 04:27:10;;;;;;;6.45;1.52;;;16.10;99.90;;;;;;4996462;28;20058;-72
2023/10/07 04:29:37;;;;;;;9.45;1.75;;;16.10;99.90;;;;;;4981779;28;20117;-70
2023/10/07 04:32:11;;;;;;;7.50;1.95;;;16.00;99.90;;;;;;5001821;28;20034;-71
2023/10/07 04:34:48;;;;;;;12.27;2.20;;;16.00;99.90;;;;;;4981685;28;20050;-73
2023/10/07 04:37:16;;;;;;;14.73;2.38;;;16.00;99.90;;;;;;4981589;28;20108;-71
2023/10/07 04:42:20;;;;;;;12.73;2.13;;;16.00;99.90;;;;;;4995589;28;20065;-72
2023/10/07 04:47:35;;;;;;;5.45;1.73;;;16.10;99.90;;;;;;5007001;28;20088;-71
2023/10/07 04:50:06;;;;;;;9.43;1.88;;;16.10;99.90;;;;;;4997905;28;20051;-71
2023/10/07 04:52:33;;;;;;;15.52;2.58;;;16.10;99.90;;;;;;5002940;28;20041;-73
2023/10/07 04:55:01;;;;;;;10.13;2.10;;;16.10;99.90;;;;;;4987166;28;20118;-71
2023/10/07 04:57:44;;;;;;;6.72;2.25;;;16.10;99.90;;;;;;4981144;28;20031;-71
2023/10/07 05:00:27;;;;;;;10.88;1.70;;;16.10;99.90;;;;;;4978438;28;20049;-72
2023/10/07 05:02:57;;;;;;;7.90;1.85;;;16.10;99.90;;;;;;4980803;28;20038;-71
2023/10/07 05:05:31;;;;;;;7.63;2.55;;;16.10;99.90;;;;;;4994790;28;20495;-71
2023/10/07 05:07:58;;;;;;;8.50;1.60;;;16.10;99.90;;;;;;4980045;28;20042;-73
2023/10/07 05:10:29;;;;;;;12.55;1.60;;;16.10;99.90;;;;;;4993844;28;20042;-72
2023/10/07 05:12:56;;;;;;;7.05;2.00;;;16.10;99.90;;;;;;4975319;28;20038;-72
2023/10/07 05:15:25;;;;;;;4.60;1.60;;;16.10;99.90;;;;;;4998195;28;20045;-70
2023/10/07 05:17:52;;;;;;;7.47;1.75;;;16.10;99.90;;;;;;5011478;28;20686;-73
2023/10/07 05:20:28;;;;;;;14.50;2.30;;;16.10;99.90;;;;;;5002442;28;20095;-72
2023/10/07 05:22:55;;;;;;;10.45;2.40;;;16.10;99.90;;;;;;4999580;28;20042;-72
2023/10/07 05:25:21;;;;;;;8.57;1.60;;;16.10;99.90;;;;;;4982162;28;20029;-71
2023/10/07 05:27:47;;;;;;;12.15;2.25;;;16.10;99.90;;;;;;4978689;28;20034;-70
2023/10/07 05:30:16;;;;;;;7.43;2.30;;;16.10;99.90;;;;;;4980860;28;20042;-71
2023/10/07 05:32:42;;;;;;;8.88;1.75;;;16.10;99.90;;;;;;4999922;28;20101;-71
2023/10/07 05:35:08;;;;;;;12.02;1.92;;;16.10;99.90;;;;;;4997861;28;20132;-72
2023/10/07 05:37:34;;;;;;;8.85;2.08;;;16.10;99.90;;;;;;4984043;28;20038;-70
2023/10/07 05:39:59;;;;;;;7.30;2.00;;;16.10;99.90;;;;;;4982507;28;20407;-71
2023/10/07 05:42:25;;;;;;;7.50;1.80;;;16.10;99.90;;;;;;4999609;28;20036;-71
2023/10/07 05:44:52;;;;;;;7.80;2.13;;;16.10;99.90;;;;;;5002949;28;20176;-71
2023/10/07 05:47:18;;;;;;;7.35;1.77;;;16.10;99.90;;;;;;4989817;28;20026;-71
2023/10/07 05:49:44;;;;;;;10.90;1.95;;;16.10;99.90;;;;;;5005770;28;20041;-70
2023/10/07 05:52:09;;;;;;;6.05;1.42;;;16.10;99.90;;;;;;4977371;28;20038;-72
2023/10/07 05:54:35;;;;;;;6.78;2.30;;;16.10;99.90;;;;;;4982369;28;20038;-71
2023/10/07 05:57:07;;;;;;;6.15;1.60;;;16.10;99.90;;;;;;4976463;28;20033;-71
2023/10/07 05:59:33;;;;;;;12.35;1.85;;;16.10;99.90;;;;;;4984099;28;20031;-70
2023/10/07 06:02:05;;;;;;;6.72;2.10;;;16.10;99.90;;;;;;4995014;28;20073;-71
2023/10/07 06:04:31;;;;;;;11.35;2.85;;;16.10;99.90;;;;;;4979286;28;20049;-72
2023/10/07 06:06:57;;;;;;;12.27;1.80;;;16.10;99.90;;;;;;4995199;28;20038;-70
2023/10/07 06:09:23;;;;;;;18.33;2.90;;;16.10;99.90;;;;;;4994670;28;20628;-71
2023/10/07 06:11:48;;;;;;;11.05;2.53;;;16.20;99.90;;;;;;4996725;28;20030;-71
2023/10/07 06:14:18;;;;;;;9.00;2.30;;;16.10;99.90;;;;;;4978960;28;20679;-72
2023/10/07 06:16:44;;;;;;;13.07;2.78;;;16.20;99.90;;;;;;5004941;28;20508;-71
2023/10/07 06:19:13;;;;;;;15.35;2.20;;;16.20;99.90;;;;;;4982928;28;20038;-72
2023/10/07 06:21:50;;;;;;;8.60;1.50;;;16.20;99.90;;;;;;4976918;28;20030;-71
2023/10/07 06:24:20;;;;;;;7.95;1.98;;;16.20;99.90;;;;;;4979677;28;20497;-71
2023/10/07 06:26:49;;;;;;;10.00;2.35;;;16.20;99.90;;;;;;4977254;28;20046;-71
2023/10/07 06:29:19;;;;;;;11.60;2.22;;;16.30;99.90;;;;;;4978487;28;20422;-71
2023/10/07 06:31:54;;;;;;;13.85;2.72;;;16.30;99.90;;;;;;4979481;28;20041;-71
2023/10/07 06:34:25;;;;;;;9.65;2.90;;;16.30;99.90;;;;;;4979504;28;20166;-73
2023/10/07 06:36:52;;;;;;;10.82;2.97;;;16.30;99.90;;;;;;4999182;28;20120;-71
2023/10/07 06:39:27;;;;;;;13.23;2.97;;;16.30;99.90;;;;;;4978379;28;20125;-72
2023/10/07 06:41:54;;;;;;;9.10;2.33;;;16.40;99.90;;;;;;4990161;28;20031;-73
2023/10/07 06:44:19;;;;;;;12.45;2.63;;;16.40;99.90;;;;;;4982891;28;20046;-72
2023/10/07 06:46:46;;;;;;;11.60;3.08;;;16.50;99.90;;;;;;4988449;28;20139;-72
2023/10/07 06:49:19;;;;;;;12.57;2.05;;;16.50;99.90;;;;;;4977548;28;20037;-70
2023/10/07 06:51:50;;;;;;;11.95;2.72;;;16.50;99.90;;;;;;4998406;28;20465;-71
2023/10/07 06:54:16;;;;;;;13.40;2.60;;;16.50;99.90;;;;;;4994690;28;20490;-71
2023/10/07 06:56:41;;;;;;;11.60;3.05;;;16.50;99.90;;;;;;4976596;28;20037;-72
2023/10/07 06:59:12;;;;;;;17.45;3.85;;;16.50;99.90;;;;;;4995598;28;20029;-72
2023/10/07 07:04:19;;;;;;;15.25;2.65;;;16.50;99.90;;;;;;4988744;28;20037;-72
2023/10/07 07:06:47;;;;;;;12.05;3.13;;;16.60;99.90;;;;;;4979663;28;20125;-71
2023/10/07 07:11:59;;;;;;;11.90;2.25;;;16.60;99.90;;;;;;4995551;28;20134;-71
2023/10/07 07:14:30;;;;;;;11.18;2.67;;;16.60;99.90;;;;;;4991011;28;20116;-71
2023/10/07 07:20:19;;;;;;;10.82;2.55;;;16.80;99.90;;;;;;4994553;28;20149;-70
2023/10/07 07:22:44;;;;;;;10.32;2.67;;;16.90;99.90;;;;;;4993035;28;20049;-72
2023/10/07 07:25:12;;;;;;;10.52;2.10;;;17.00;99.90;;;;;;4991468;28;20483;-72
2023/10/07 07:27:44;;;;;;;13.25;2.70;;;17.10;99.90;;;;;;4983660;28;20125;-72
2023/10/07 07:30:19;;;;;;;13.32;2.40;;;17.10;99.90;;;;;;4978203;28;20050;-73
2023/10/07 07:32:45;;;;;;;10.05;2.40;;;17.10;99.90;;;;;;4980291;28;20049;-72
2023/10/07 07:35:11;;;;;;;13.02;2.90;;;17.10;99.90;;;;;;4974769;28;20133;-71
2023/10/07 07:37:37;;;;;;;13.32;2.75;;;17.10;99.90;;;;;;4996652;28;20463;-71
2023/10/07 07:40:09;;;;;;;13.15;3.03;;;17.10;99.90;;;;;;4992465;28;20038;-73
2023/10/07 07:42:35;;;;;;;8.38;2.05;;;17.20;99.90;;;;;;4979231;28;20088;-72
2023/10/07 07:45:01;;;;;;;12.38;2.20;;;17.20;99.90;;;;;;4975397;28;20034;-72
2023/10/07 07:47:33;;;;;;;7.93;2.70;;;17.20;99.90;;;;;;4996090;28;20037;-72
2023/10/07 07:50:01;;;;;;;12.38;3.00;;;17.20;99.90;;;;;;4993643;28;20169;-74
2023/10/07 07:52:27;;;;;;;14.48;3.03;;;17.30;99.90;;;;;;5004801;28;20034;-70
2023/10/07 07:54:54;;;;;;;17.35;2.55;;;17.40;99.90;;;;;;4991987;28;20128;-72
2023/10/07 07:57:22;;;;;;;20.17;3.55;;;17.40;99.90;;;;;;4975008;28;20035;-72
2023/10/07 07:59:48;;;;;;;14.27;3.03;;;17.50;99.90;;;;;;4973935;28;20057;-72
2023/10/07 08:02:16;;;;;;;12.15;3.08;;;17.60;99.90;;;;;;4991951;28;20034;-72
2023/10/07 08:04:47;;;;;;;16.95;2.42;;;17.60;99.90;;;;;;4982358;28;20443;-72
2023/10/07 08:07:27;;;;;;;11.40;2.42;;;17.70;99.90;;;;;;4978843;28;20043;-72
2023/10/07 08:09:58;;;;;;;;;;;17.70;99.90;;;;;;5002285;28;20069;-71
2023/10/07 08:12:30;;;;;;;18.67;3.28;;;17.80;99.90;;;;;;4998968;28;20623;-71
2023/10/07 08:14:58;;;;;;;11.95;2.30;;;17.80;99.90;;;;;;4982305;28;20056;-71
2023/10/07 08:17:27;;;;;;;10.07;2.08;;;17.90;99.90;;;;;;5002369;28;20042;-71
2023/10/07 08:19:57;;;;;;;10.80;2.60;;;17.90;99.90;;;;;;5003702;28;20540;-72
2023/10/07 08:22:27;;;;;;;19.30;2.20;;;18.00;99.90;;;;;;4976051;28;20088;-72
2023/10/07 08:24:52;;;;;;;12.05;2.28;;;18.00;99.90;;;;;;4982563;28;20038;-71
2023/10/07 08:30:07;;;;;;;12.00;2.92;;;18.20;99.90;;;;;;5009340;28;20116;-71
2023/10/07 08:32:37;;;;;;;6.10;1.85;;;18.30;99.90;;;;;;4982860;28;20034;-71
2023/10/07 08:35:14;;;;;;;10.20;2.15;;;18.30;99.90;;;;;;4981287;28;20065;-72
2023/10/07 08:37:46;;;;;;;10.40;2.50;;;18.40;99.90;;;;;;4979896;28;20452;-72
2023/10/07 08:40:15;;;;;;;9.80;1.73;;;18.40;99.90;;;;;;4998347;28;20026;-72
2023/10/07 08:42:46;;;;;;;12.90;1.60;;;18.50;99.90;;;;;;4983979;28;20125;-70
2023/10/07 08:45:15;;;;;;;10.80;2.53;;;18.50;99.90;;;;;;5000102;28;20041;-72
2023/10/07 08:47:49;;;;;;;10.73;2.17;;;18.50;99.90;;;;;;4996606;28;20889;-72
2023/10/07 08:50:24;;;;;;;10.55;2.75;;;18.60;99.90;;;;;;4997326;28;20411;-71
2023/10/07 08:53:04;;;;;;;7.53;1.77;;;18.70;99.90;;;;;;4980088;28;20034;-71
2023/10/07 08:55:32;;;;;;;7.03;2.38;;;18.70;99.90;;;;;;4979117;28;20066;-72
2023/10/07 08:58:02;;;;;;;12.23;1.90;;;18.80;99.90;;;;;;4995979;28;20141;-71
2023/10/07 09:00:33;;;;;;;;;;;18.80;99.90;;;;;;4982189;28;20549;-71
2023/10/07 09:03:14;;;;;;;9.52;2.17;;;18.90;99.90;;;;;;4989866;28;19917;-70
2023/10/07 09:05:40;;;;;;;11.90;3.00;;;18.90;99.90;;;;;;4996215;28;20038;-70
2023/10/07 09:08:11;;;;;;;9.85;2.15;;;19.10;99.90;;;;;;4983049;28;20048;-70
2023/10/07 09:10:40;;;;;;;9.10;2.00;;;19.10;99.90;;;;;;5003870;28;20116;-71
2023/10/07 09:13:12;;;;;;;12.45;1.80;;;19.10;99.90;;;;;;4998879;28;20045;-73
2023/10/07 09:15:42;;;;;;;10.30;2.13;;;19.20;99.90;;;;;;4981086;28;20434;-71
2023/10/07 09:18:10;;;;;;;11.80;1.92;;;19.30;99.90;;;;;;5002015;28;20031;-71
2023/10/07 09:20:45;;;;;;;11.68;2.97;;;19.30;99.90;;;;;;4995623;28;20157;-70
2023/10/07 09:23:20;;;;;;;6.78;1.75;;;19.40;99.90;;;;;;4996226;28;20045;-73
2023/10/07 09:25:50;;;;;;;9.32;2.15;;;19.40;99.90;;;;;;4998586;28;20045;-71
2023/10/07 09:28:18;;;;;;;11.98;2.15;;;19.50;99.90;;;;;;4995818;28;20684;-72
2023/10/07 09:30:45;;;;;;;12.82;2.38;;;19.60;99.90;;;;;;4996648;28;20053;-71
2023/10/07 09:33:13;;;;;;;19.42;2.60;;;19.60;99.90;;;;;;4978241;28;20030;-70
2023/10/07 09:38:41;;;;;;;9.35;1.70;;;19.70;99.90;;;;;;5005461;28;20037;-71
2023/10/07 09:41:23;;;;;;;8.55;2.20;;;19.80;99.90;;;;;;5004558;28;20048;-70
2023/10/07 09:43:56;;;;;;;9.77;1.75;;;19.80;99.90;;;;;;5003875;28;20542;-70
2023/10/07 09:46:27;;;;;;;7.97;1.90;;;19.80;99.90;;;;;;5006893;28;20029;-70
2023/10/07 09:48:53;;;;;;;11.13;1.80;;;19.80;99.90;;;;;;5002067;28;20512;-71
2023/10/07 09:51:23;;;;;;;20.63;2.13;;;19.90;99.90;;;;;;4994323;28;20040;-71
2023/10/07 09:53:49;;;;;;;7.75;1.67;;;20.00;99.90;;;;;;4998712;28;20038;-70
2023/10/07 09:56:32;;;;;;;5.85;1.55;;;20.00;99.90;;;;;;4980015;28;20045;-70
2023/10/07 09:59:14;;;;;;;9.65;1.88;;;20.10;99.90;;;;;;4976733;28;20030;-70
2023/10/07 10:01:54;;;;;;;4.70;1.67;;;20.20;99.90;;;;;;5001143;28;20060;-70
2023/10/07 10:04:54;;;;;;;10.52;2.15;;;20.30;99.90;;;;;;4977019;28;20446;-71
2023/10/07 10:07:56;;;;;;;10.85;1.33;;;20.30;99.90;;;;;;4980351;28;20538;-70
2023/10/07 10:10:31;;;;;;;9.30;2.00;;;20.40;99.90;;;;;;5004155;28;20034;-71
2023/10/07 10:18:05;;;;;;;12.15;1.98;;;20.40;99.90;;;;;;4999074;28;20049;-72
2023/10/07 10:20:42;;;;;;;;;;;20.40;99.90;;;;;;4977469;28;20042;-71
2023/10/07 10:23:18;;;;;;;6.03;1.65;;;20.30;99.90;;;;;;4979900;28;19924;-71
2023/10/07 10:25:48;;;;;;;9.27;2.72;;;20.20;99.90;;;;;;5007395;28;20042;-72
2023/10/07 10:28:28;;;;;;;9.27;1.85;;;20.20;99.90;;;;;;5000225;28;20104;-71
2023/10/07 10:30:56;;;;;;;13.30;2.60;;;20.10;99.90;;;;;;5003483;28;20835;-71
2023/10/07 10:33:25;;;;;;;11.48;2.63;;;20.20;99.90;;;;;;4996728;28;20044;-70
2023/10/07 10:35:52;;;;;;;9.50;1.85;;;20.10;99.90;;;;;;4980632;28;20056;-71
2023/10/07 10:38:19;;;;;;;10.95;2.10;;;20.10;99.90;;;;;;4993227;28;20502;-70
2023/10/07 10:40:45;;;;;;;11.05;2.53;;;20.20;99.90;;;;;;4987219;28;20034;-71
2023/10/07 10:43:22;;;;;;;11.93;1.90;;;20.10;99.90;;;;;;4982389;28;20066;-71
2023/10/07 10:45:48;;;;;;;9.23;1.85;;;20.20;99.90;;;;;;4983175;28;20153;-71
2023/10/07 10:48:14;;;;;;;10.45;2.45;;;20.20;99.90;;;;;;4995302;28;20216;-71
2023/10/07 10:50:40;;;;;;;10.25;2.45;;;20.20;99.90;;;;;;4977232;28;20061;-70
2023/10/07 10:53:06;;;;;;;8.60;2.30;;;20.40;99.90;;;;;;4998143;28;20046;-70
2023/10/07 10:55:36;;;;;;;5.43;1.52;;;20.40;99.90;;;;;;4996122;28;20038;-71
2023/10/07 10:58:01;;;;;;;11.43;1.58;;;20.40;99.90;;;;;;4997205;28;20034;-71
2023/10/07 11:00:28;;;;;;;10.82;1.70;;;20.40;99.90;;;;;;4997971;28;20044;-71
2023/10/07 11:02:54;;;;;;;7.63;1.88;;;20.50;99.90;;;;;;4987522;28;20038;-71
2023/10/07 11:05:21;;;;;;;7.75;1.83;;;20.50;99.90;;;;;;5000929;28;20034;-70
2023/10/07 11:07:50;;;;;;;8.02;1.67;;;20.50;99.90;;;;;;4997209;28;20042;-72
2023/10/07 11:10:22;;;;;;;13.07;2.28;;;20.60;99.90;;;;;;4984499;28;20038;-71
2023/10/07 11:12:52;;;;;;;5.00;1.45;;;20.60;99.90;;;;;;5001161;28;20046;-70
2023/10/07 11:15:24;;;;;;;5.13;1.67;;;20.60;99.90;;;;;;4981723;28;20054;-71
2023/10/07 11:17:58;;;;;;;7.32;1.48;;;20.60;99.90;;;;;;4982355;28;20122;-70
2023/10/07 11:20:24;;;;;;;10.60;1.88;;;20.60;99.90;;;;;;4975928;28;20044;-72
2023/10/07 11:22:53;;;;;;;3.55;1.13;;;20.60;99.90;;;;;;4976789;28;20053;-71
2023/10/07 11:25:18;;;;;;;12.45;1.85;;;20.60;99.90;;;;;;4974691;28;20081;-71
2023/10/07 11:27:44;;;;;;;8.65;1.92;;;20.50;99.90;;;;;;4983686;28;20058;-70
2023/10/07 11:30:17;;;;;;;5.93;1.60;;;20.50;99.90;;;;;;4996938;28;20044;-71
2023/10/07 11:32:43;;;;;;;8.95;1.88;;;20.60;99.90;;;;;;4977153;28;20041;-71
2023/10/07 11:35:27;;;;;;;11.10;2.00;;;20.60;99.90;;;;;;4999101;28;20558;-71
2023/10/07 11:38:02;;;;;;;5.47;1.30;;;20.50;99.90;;;;;;4999311;28;20049;-71
2023/10/07 11:40:30;;;;;;;7.60;1.40;;;20.50;99.90;;;;;;4974662;28;20067;-72
2023/10/07 11:42:58;;;;;;;5.57;1.60;;;20.60;99.90;;;;;;4999361;28;20030;-71
2023/10/07 11:45:26;;;;;;;10.23;1.65;;;20.50;99.90;;;;;;5006559;28;20745;-70
2023/10/07 11:47:56;;;;;;;9.02;2.50;;;20.50;99.90;;;;;;5005194;28;20037;-70
2023/10/07 11:50:23;;;;;;;7.22;2.65;;;20.50;99.90;;;;;;4983086;28;20038;-69
2023/10/07 11:52:48;;;;;;;6.88;2.15;;;20.60;99.90;;;;;;4996718;28;20034;-70
2023/10/07 11:55:17;;;;;;;9.20;1.35;;;20.50;99.90;;;;;;4996034;28;20806;-71
2023/10/07 11:57:42;;;;;;;7.55;1.63;;;20.60;99.90;;;;;;4982253;28;20149;-70
2023/10/07 12:00:22;;;;;;;11.98;2.60;;;20.70;99.90;;;;;;4998242;28;20153;-71
2023/10/07 12:02:49;;;;;;;;;;;20.80;99.90;;;;;;4996882;28;20658;-70
2023/10/07 12:05:14;;;;;;;7.28;2.08;;;20.90;99.90;;;;;;4984347;28;19921;-70
2023/10/07 12:07:41;;;;;;;7.10;1.90;;;20.90;99.90;;;;;;4998680;28;20494;-71
2023/10/07 12:10:15;;;;;;;6.72;1.52;;;20.90;99.90;;;;;;5005098;28;20054;-72
2023/10/07 12:12:42;;;;;;;11.23;1.98;;;20.90;99.90;;;;;;4979676;28;20383;-71
2023/10/07 12:15:10;;;;;;;10.73;2.38;;;20.90;99.90;;;;;;4977764;28;20066;-71
2023/10/07 12:17:35;;;;;;;5.75;1.75;;;20.80;99.90;;;;;;5000771;28;20121;-70
2023/10/07 12:20:02;;;;;;;6.65;1.63;;;20.80;99.90;;;;;;5009340;28;20469;-70
2023/10/07 12:22:27;;;;;;;10.00;1.60;;;20.80;99.90;;;;;;4980417;28;20048;-70
2023/10/07 12:24:54;;;;;;;8.68;2.15;;;20.70;99.90;;;;;;4996591;28;20042;-71
2023/10/07 12:27:20;;;;;;;8.00;2.08;;;20.80;99.90;;;;;;4985482;28;20658;-73
2023/10/07 12:29:46;;;;;;;11.55;2.17;;;20.70;99.90;;;;;;4978928;28;20100;-71
2023/10/07 12:32:12;;;;;;;7.70;2.30;;;20.70;99.90;;;;;;4998548;28;20030;-71
2023/10/07 12:34:40;;;;;;;4.13;1.67;;;20.70;99.90;;;;;;4980734;28;20034;-71
2023/10/07 12:37:05;;;;;;;8.50;2.03;;;20.70;99.90;;;;;;4977244;28;20030;-71
2023/10/07 12:39:39;;;;;;;7.20;1.50;;;20.80;99.90;;;;;;4997666;28;20042;-73
2023/10/07 12:42:04;;;;;;;6.05;1.40;;;20.80;99.90;;;;;;4979211;28;20435;-70
2023/10/07 12:44:30;;;;;;;11.30;2.30;;;20.80;99.90;;;;;;4981010;28;20066;-72
2023/10/07 12:46:55;;;;;;;10.10;1.98;;;20.90;99.90;;;;;;4981003;28;20042;-73
2023/10/07 12:49:22;;;;;;;9.82;1.77;;;20.80;99.90;;;;;;4977339;28;20061;-72
2023/10/07 12:51:48;;;;;;;4.53;1.65;;;20.80;99.90;;;;;;4981744;28;20056;-72
2023/10/07 12:54:13;;;;;;;7.10;1.67;;;20.80;99.90;;;;;;4978559;28;20043;-70
2023/10/07 12:56:46;;;;;;;12.45;2.33;;;20.80;99.90;;;;;;4996886;28;20505;-70
2023/10/07 12:59:23;;;;;;;4.93;1.88;;;20.80;99.90;;;;;;4977096;28;20043;-70
2023/10/07 13:01:50;;;;;;;6.45;1.98;;;20.80;99.90;;;;;;4981631;28;20041;-70
2023/10/07 13:04:16;;;;;;;12.70;2.33;;;20.80;99.90;;;;;;4988318;28;20042;-71
2023/10/07 13:06:44;;;;;;;10.80;1.40;;;20.80;99.90;;;;;;4985294;28;20452;-71
2023/10/07 13:09:16;;;;;;;7.43;1.98;;;20.70;99.90;;;;;;4977674;28;20038;-71
2023/10/07 13:11:43;;;;;;;8.13;2.28;;;20.70;99.90;;;;;;4985074;28;20034;-71
2023/10/07 13:14:10;;;;;;;9.98;1.63;;;20.60;99.90;;;;;;4994852;28;20141;-71
2023/10/07 13:16:39;;;;;;;6.65;1.70;;;20.60;99.90;;;;;;4996033;28;20120;-71
2023/10/07 13:19:05;;;;;;;8.38;1.55;;;20.60;99.90;;;;;;4978973;28;20034;-74
2023/10/07 13:21:32;;;;;;;8.60;1.60;;;20.60;99.90;;;;;;4979309;28;20037;-71
2023/10/07 13:23:57;;;;;;;12.10;2.38;;;20.50;99.90;;;;;;5007107;28;20088;-72
2023/10/07 13:26:23;;;;;;;6.75;1.58;;;20.60;99.90;;;;;;4977961;28;20054;-70
2023/10/07 13:28:49;;;;;;;10.50;1.73;;;20.50;99.90;;;;;;4985465;28;20111;-71
2023/10/07 13:31:16;;;;;;;6.28;2.03;;;20.40;99.90;;;;;;4973210;28;20035;-72
2023/10/07 13:33:43;;;;;;;11.68;1.90;;;20.50;99.90;;;;;;4981709;28;20041;-71
2023/10/07 13:36:10;;;;;;;8.73;1.52;;;20.50;99.90;;;;;;4976901;28;20034;-71